Time;durP1;ratioP1;P1;durP2;ratioP2;P2;SDS_P1;SDS_P2;PMS_P1;PMS_P2;Temp;Humidity;BMP_temperature;BMP_pressure;BME280_temperature;BME280_humidity;BME280_pressure;Samples;Min_cycle;Max_cycle;Signal;HPM_P1;HPM_P2
2021/04/23 00:47:11;;;;;;;10.20;2.47;;;6.00;95.60;;;;;;5957449;23;20035;31
2021/04/23 00:49:44;;;;;;;8.73;2.85;;;5.90;95.80;;;;;;3521664;41;20042;-87
2021/04/23 00:52:11;;;;;;;7.07;2.55;;;5.90;96.30;;;;;;3513778;41;20028;-90
2021/04/23 00:55:30;;;;;;;6.18;2.80;;;5.90;96.30;;;;;;3516923;41;20036;-85
2021/04/23 00:58:28;;;;;;;6.88;2.55;;;6.00;96.30;;;;;;3496080;41;20102;-86
2021/04/23 01:01:02;;;;;;;7.68;2.70;;;6.00;96.20;;;;;;3522719;41;20094;-85
2021/04/23 01:03:32;;;;;;;8.82;2.70;;;6.00;96.30;;;;;;3522528;41;20063;-88
2021/04/23 01:06:09;;;;;;;7.90;2.58;;;5.90;96.90;;;;;;3522672;40;20063;-88
2021/04/23 01:50:33;;;;;;;11.25;3.58;;;5.30;99.90;;;;;;5951440;23;21101;31
2021/04/23 01:53:20;;;;;;;7.13;3.70;;;5.40;99.90;;;;;;3477402;41;20030;-85
2021/04/23 01:55:50;;;;;;;9.98;3.10;;;5.50;99.90;;;;;;3486077;41;20037;-84
2021/04/23 01:58:25;;;;;;;8.57;3.25;;;5.40;99.90;;;;;;3475627;41;20038;-84
2021/04/23 02:01:19;;;;;;;14.68;3.40;;;5.40;99.90;;;;;;3464368;41;20046;-85
2021/04/23 02:04:06;;;;;;;8.43;3.50;;;5.30;99.90;;;;;;3478079;41;20037;-84
2021/04/23 02:06:41;;;;;;;9.13;3.42;;;5.30;99.90;;;;;;3482902;41;20049;-83
2021/04/23 02:09:14;;;;;;;10.52;3.92;;;5.20;99.90;;;;;;3477662;41;20033;-85
2021/04/23 02:11:50;;;;;;;20.02;4.05;;;5.00;99.90;;;;;;3484595;41;20042;-86
2021/04/23 02:14:30;;;;;;;9.05;3.60;;;4.90;99.90;;;;;;3484980;41;20041;-85
2021/04/23 02:16:58;;;;;;;9.70;4.03;;;4.70;99.90;;;;;;3476759;41;20037;-85
2021/04/23 02:23:56;;;;;;;14.32;4.05;;;4.70;99.90;;;;;;3494598;41;20032;-85
2021/04/23 02:26:27;;;;;;;18.35;4.80;;;4.60;99.90;;;;;;3478447;41;20048;-86
2021/04/23 02:35:30;;;;;;;8.45;3.50;;;4.50;99.90;;;;;;4964767;23;20040;-86
2021/04/23 02:38:03;;;;;;;12.35;4.10;;;4.50;99.90;;;;;;3494480;41;20041;-85
2021/04/23 03:19:33;;;;;;;19.73;5.35;;;5.10;99.90;;;;;;5324412;23;20048;-83
2021/04/23 03:22:14;;;;;;;12.52;5.63;;;5.10;99.90;;;;;;3507511;41;20045;-87
2021/04/23 03:24:42;;;;;;;14.43;4.97;;;5.10;99.90;;;;;;3504326;41;20037;-84
2021/04/23 03:27:13;;;;;;;13.18;5.03;;;5.00;99.90;;;;;;3511824;41;20033;-84
2021/04/23 03:29:45;;;;;;;14.70;5.30;;;5.00;99.90;;;;;;3507566;41;20033;-81
2021/04/23 03:32:25;;;;;;;14.07;5.25;;;5.10;99.90;;;;;;3495280;41;20024;-82
2021/04/23 03:35:04;;;;;;;16.45;5.65;;;5.30;99.90;;;;;;3498353;41;20047;-84
2021/04/23 03:37:52;;;;;;;11.52;5.07;;;5.30;99.90;;;;;;3504577;41;20050;-82
2021/04/23 03:40:32;;;;;;;24.60;6.28;;;5.30;99.90;;;;;;3499027;41;20056;-83
2021/04/23 03:43:08;;;;;;;16.00;5.10;;;5.40;99.90;;;;;;3497392;41;20051;-85
2021/04/23 03:45:53;;;;;;;14.07;6.00;;;5.40;99.90;;;;;;3499791;41;20048;-85
2021/04/23 03:48:27;;;;;;;15.63;5.72;;;5.50;99.90;;;;;;3507703;41;20039;-87
2021/04/23 03:54:22;;;;;;;14.98;5.25;;;5.60;99.90;;;;;;3496509;41;20029;-86
2021/04/23 04:36:57;;;;;;;10.18;4.45;;;6.00;99.90;;;;;;3512695;41;19936;-83
2021/04/23 04:39:51;;;;;;;15.60;5.63;;;6.00;99.90;;;;;;3495497;41;20045;-91
2021/04/23 05:14:27;;;;;;;17.58;5.15;;;5.20;99.90;;;;;;5938811;23;20021;-86
2021/04/23 05:16:58;;;;;;;11.65;5.40;;;5.10;99.90;;;;;;3503554;41;20037;-90
2021/04/23 05:19:28;;;;;;;;;;;5.20;99.90;;;;;;3501834;41;20040;-86
2021/04/23 05:22:06;;;;;;;16.20;5.53;;;5.10;99.90;;;;;;3505525;41;20010;-86
2021/04/23 05:24:41;;;;;;;11.88;4.53;;;5.20;99.90;;;;;;3510573;41;20061;-88
2021/04/23 05:27:16;;;;;;;15.30;5.15;;;5.40;99.90;;;;;;3487503;41;20041;-87
2021/04/23 05:29:52;;;;;;;13.05;4.60;;;5.60;99.90;;;;;;3510122;41;20063;-88
2021/04/23 05:32:26;;;;;;;14.55;5.43;;;5.80;99.90;;;;;;3512893;41;20036;-88
2021/04/23 05:35:06;;;;;;;13.18;4.25;;;5.90;99.90;;;;;;3501633;41;20044;-84
2021/04/23 05:37:36;;;;;;;;;;;5.90;99.90;;;;;;3494023;41;20042;-84
2021/04/23 05:40:11;;;;;;;14.43;3.85;;;6.20;99.90;;;;;;3479892;41;19955;-87
2021/04/23 05:42:44;;;;;;;15.82;4.75;;;6.30;99.90;;;;;;3496680;41;20052;-86
2021/04/23 05:45:13;;;;;;;11.82;4.65;;;6.50;99.90;;;;;;3495539;41;20052;-85
2021/04/23 05:48:14;;;;;;;10.55;4.40;;;6.60;99.90;;;;;;3503106;41;20040;-89
2021/04/23 05:51:17;;;;;;;11.23;4.50;;;6.60;99.90;;;;;;3495671;41;20037;-85
2021/04/23 05:54:04;;;;;;;19.40;4.43;;;6.60;99.90;;;;;;3495804;41;20044;-86
2021/04/23 05:56:35;;;;;;;12.43;4.18;;;6.60;99.90;;;;;;3496535;41;20041;-86
2021/04/23 05:59:19;;;;;;;14.02;4.93;;;6.70;99.90;;;;;;3499109;41;20059;-86
2021/04/23 06:01:52;;;;;;;16.83;4.18;;;6.70;99.90;;;;;;3505444;41;20036;-87
2021/04/23 06:04:24;;;;;;;18.33;4.15;;;6.70;99.90;;;;;;3505226;41;20044;-85
2021/04/23 06:06:56;;;;;;;21.27;5.10;;;6.80;99.90;;;;;;3489053;41;20039;-85
2021/04/23 06:09:26;;;;;;;13.48;3.90;;;6.90;99.90;;;;;;3497652;41;20033;-84
2021/04/23 06:16:08;;;;;;;10.25;4.13;;;7.30;99.90;;;;;;3503998;40;20036;-86
2021/04/23 06:18:39;;;;;;;13.38;4.80;;;7.30;99.90;;;;;;3521677;40;20032;-85
2021/04/23 06:22:13;;;;;;;10.32;4.65;;;7.30;99.90;;;;;;3504905;40;20043;-87
2021/04/23 06:24:43;;;;;;;13.20;4.75;;;7.00;99.90;;;;;;3498989;41;20045;-91
2021/04/23 06:53:14;;;;;;;15.82;4.20;;;7.60;99.90;;;;;;4585197;23;20068;-87
2021/04/23 07:31:24;;;;;;;9.73;3.63;;;9.50;87.10;;;;;;4096429;23;20087;-85
2021/04/23 07:33:59;;;;;;;10.70;3.00;;;9.40;86.70;;;;;;3517190;40;20032;-86
2021/04/23 07:36:58;;;;;;;10.57;2.35;;;9.10;86.80;;;;;;3524863;40;20027;-86
2021/04/23 07:39:30;;;;;;;6.95;2.58;;;9.20;85.40;;;;;;3516582;40;20035;-88
2021/04/23 07:42:02;;;;;;;10.85;3.50;;;9.40;83.70;;;;;;3512628;41;20041;-85
2021/04/23 07:44:30;;;;;;;11.73;2.38;;;9.60;81.90;;;;;;3516471;40;20052;-86
2021/04/23 07:46:59;;;;;;;9.40;2.87;;;9.40;83.30;;;;;;3516871;40;20031;-85
2021/04/23 07:49:34;;;;;;;8.35;2.83;;;9.30;84.90;;;;;;3516841;40;20034;-85
2021/04/23 07:52:03;;;;;;;7.28;2.75;;;9.40;84.50;;;;;;3517298;40;20043;-85
2021/04/23 07:54:31;;;;;;;7.65;3.03;;;9.40;84.60;;;;;;3509794;41;20036;-82
2021/04/23 07:56:59;;;;;;;7.90;3.28;;;9.40;83.90;;;;;;3511556;40;20028;-86
2021/04/23 07:59:27;;;;;;;7.03;2.53;;;9.70;84.20;;;;;;3524372;40;20044;-87
2021/04/23 08:02:00;;;;;;;8.77;2.97;;;10.20;82.60;;;;;;3514308;41;20036;-83
2021/04/23 08:04:59;;;;;;;7.70;3.20;;;10.40;78.30;;;;;;3514774;41;20052;-86
2021/04/23 08:07:48;;;;;;;12.23;3.05;;;10.00;78.90;;;;;;3514753;41;20051;-86
2021/04/23 08:25:38;;;;;;;12.98;3.55;;;10.00;78.00;;;;;;4647568;23;20040;-87
2021/04/23 08:28:09;;;;;;;7.88;2.70;;;9.70;79.80;;;;;;3524160;40;20036;-89
2021/04/23 08:30:51;;;;;;;7.18;2.88;;;9.50;81.20;;;;;;3516202;40;20029;-89
2021/04/23 08:36:53;;;;;;;11.75;3.05;;;9.30;83.90;;;;;;3590936;23;20057;-92
2021/04/23 08:45:17;;;;;;;9.57;3.10;;;9.20;84.40;;;;;;5184097;23;20056;-85
2021/04/23 08:48:36;;;;;;;7.00;3.38;;;9.50;82.60;;;;;;3505965;40;20064;-88
2021/04/23 08:51:09;;;;;;;12.20;2.97;;;9.50;79.80;;;;;;3508200;40;20036;-85
2021/04/23 08:56:14;;;;;;;11.60;2.80;;;9.50;77.90;;;;;;3504398;41;20028;-87
2021/04/23 09:14:34;;;;;;;10.57;3.35;;;10.80;67.00;;;;;;5903042;23;20018;-87
2021/04/23 09:17:02;;;;;;;10.77;3.17;;;10.70;69.90;;;;;;3504605;41;20041;-89
2021/04/23 09:23:56;;;;;;;8.60;3.33;;;10.70;72.40;;;;;;5877441;23;20062;-86
2021/04/23 09:35:50;;;;;;;10.50;4.13;;;9.90;76.80;;;;;;5609261;23;20080;-89
2021/04/23 09:38:21;;;;;;;11.05;3.70;;;9.70;78.30;;;;;;3496411;41;20051;-86
2021/04/23 09:40:51;;;;;;;8.13;3.25;;;9.60;78.90;;;;;;3495899;41;20051;-85
2021/04/23 09:43:38;;;;;;;6.68;3.30;;;9.30;79.60;;;;;;3488817;41;20033;-89
2021/04/23 09:46:15;;;;;;;13.98;3.90;;;9.10;81.20;;;;;;3497156;41;20040;-84
2021/04/23 09:48:51;;;;;;;8.82;3.55;;;9.10;82.10;;;;;;3496556;41;20039;-85
2021/04/23 09:51:25;;;;;;;7.50;3.30;;;9.40;80.70;;;;;;3511092;41;20052;-90
2021/04/23 09:54:16;;;;;;;11.13;4.28;;;9.50;80.40;;;;;;3496645;41;20189;-88
2021/04/23 10:02:24;;;;;;;20.83;4.75;;;10.40;76.40;;;;;;3514132;40;20039;-86
2021/04/23 10:04:52;;;;;;;9.30;3.47;;;10.70;74.00;;;;;;3506561;41;20024;-85
2021/04/23 10:07:27;;;;;;;7.03;3.58;;;10.90;72.70;;;;;;3515047;40;20033;-84
2021/04/23 10:14:18;;;;;;;11.77;3.80;;;10.30;73.60;;;;;;3523255;40;20047;-85
2021/04/23 10:16:58;;;;;;;12.48;4.00;;;10.80;72.90;;;;;;3615260;23;20021;-86
2021/04/23 10:19:54;;;;;;;9.43;3.30;;;11.00;69.80;;;;;;4144354;23;20039;-84
2021/04/23 10:25:39;;;;;;;13.82;3.83;;;10.70;67.50;;;;;;5982463;23;20011;31
2021/04/23 10:43:31;;;;;;;14.82;3.80;;;11.50;64.10;;;;;;3986263;23;20088;-86
2021/04/23 10:46:11;;;;;;;11.48;4.90;;;11.50;65.50;;;;;;3503853;40;20036;-82
2021/04/23 10:54:47;;;;;;;9.23;3.85;;;15.00;57.30;;;;;;3519169;41;20064;-87
2021/04/23 10:57:25;;;;;;;12.73;3.88;;;15.80;52.80;;;;;;3497823;41;20032;-88
2021/04/23 11:00:34;;;;;;;11.07;3.97;;;15.80;52.10;;;;;;3501879;41;20104;-86
2021/04/23 11:03:32;;;;;;;8.88;3.47;;;16.00;51.40;;;;;;3639560;39;20408;-83
2021/04/23 11:06:08;;;;;;;12.65;5.85;;;16.40;48.70;;;;;;3600600;39;20063;-84
2021/04/23 11:08:43;;;;;;;11.43;3.50;;;16.20;49.00;;;;;;3646220;39;20038;-84
2021/04/23 11:11:24;;;;;;;13.50;4.93;;;15.80;48.80;;;;;;3623996;39;20076;-82
2021/04/23 11:14:02;;;;;;;9.95;3.75;;;16.00;49.00;;;;;;3618429;39;20042;-83
2021/04/23 11:16:34;;;;;;;9.02;3.72;;;16.50;47.20;;;;;;3624991;39;20075;-83
2021/04/23 11:19:50;;;;;;;15.48;3.85;;;16.90;47.50;;;;;;3616655;39;20388;-84
2021/04/23 11:22:22;;;;;;;10.52;3.85;;;17.30;44.80;;;;;;3613596;39;20055;-84
2021/04/23 11:25:12;;;;;;;6.65;3.40;;;18.10;43.60;;;;;;3624301;39;20385;-83
2021/04/23 11:28:06;;;;;;;9.23;3.95;;;17.70;43.30;;;;;;3612348;39;20072;-83
2021/04/23 11:31:06;;;;;;;9.63;4.10;;;17.20;43.40;;;;;;3615539;39;20062;-82
2021/04/23 11:33:53;;;;;;;8.45;4.05;;;16.70;44.80;;;;;;3636590;39;20082;-82
2021/04/23 11:36:27;;;;;;;6.25;3.38;;;16.70;45.50;;;;;;3626152;39;20278;-86
2021/04/23 11:39:08;;;;;;;12.98;4.43;;;16.30;46.10;;;;;;3617357;39;20071;-86
2021/04/23 11:41:38;;;;;;;12.30;4.82;;;15.90;46.90;;;;;;3620755;39;20066;-86
2021/04/23 11:47:38;;;;;;;10.95;4.70;;;15.10;48.60;;;;;;3622248;39;20055;-84
2021/04/23 11:50:18;;;;;;;10.95;4.10;;;15.20;49.10;;;;;;3626292;39;20076;-85
2021/04/23 11:52:50;;;;;;;9.23;4.15;;;15.40;48.70;;;;;;3612712;39;20088;-85
2021/04/23 11:55:21;;;;;;;10.30;4.07;;;15.50;48.40;;;;;;3625640;39;20079;-87
2021/04/23 11:57:52;;;;;;;12.27;5.03;;;14.80;49.00;;;;;;3631681;39;20270;-86
2021/04/23 12:00:23;;;;;;;16.77;5.32;;;14.80;50.10;;;;;;3619615;39;20062;-87
2021/04/23 12:02:55;;;;;;;11.32;4.15;;;14.60;49.60;;;;;;3618223;39;20051;-86
2021/04/23 12:05:30;;;;;;;10.20;4.70;;;14.40;50.60;;;;;;3599485;39;20043;-85
2021/04/23 12:08:05;;;;;;;13.85;4.50;;;14.30;50.60;;;;;;3601988;39;20076;-85
2021/04/23 12:10:35;;;;;;;9.35;4.78;;;15.20;50.40;;;;;;3586672;40;20053;-85
2021/04/23 12:13:12;;;;;;;10.57;4.45;;;16.20;48.10;;;;;;3587917;40;20064;-84
2021/04/23 12:15:41;;;;;;;13.30;5.22;;;16.70;46.20;;;;;;3581249;40;20479;-86
2021/04/23 12:18:11;;;;;;;9.60;4.18;;;16.50;46.10;;;;;;3581839;40;20092;-84
2021/04/23 12:20:40;;;;;;;15.20;3.85;;;15.90;46.50;;;;;;3590740;40;20088;-84
2021/04/23 12:23:18;;;;;;;11.65;4.50;;;15.70;47.60;;;;;;3584187;40;20084;-84
2021/04/23 12:25:58;;;;;;;9.65;4.32;;;16.00;47.00;;;;;;3573794;40;20472;-82
2021/04/23 12:28:40;;;;;;;13.95;4.63;;;16.50;46.40;;;;;;3583786;40;20077;-83
2021/04/23 12:31:10;;;;;;;10.50;4.65;;;17.60;45.30;;;;;;3577334;40;20076;-83
2021/04/23 12:33:49;;;;;;;9.88;4.70;;;17.60;43.60;;;;;;3581943;40;20075;-82
2021/04/23 12:36:23;;;;;;;8.07;4.10;;;16.60;45.00;;;;;;3593885;40;20088;-85
2021/04/23 12:39:00;;;;;;;12.48;4.53;;;15.70;46.90;;;;;;3588837;40;20419;-86
2021/04/23 12:41:31;;;;;;;11.85;4.32;;;16.20;47.40;;;;;;3588268;40;20448;-84
2021/04/23 12:44:13;;;;;;;11.52;4.35;;;17.70;43.90;;;;;;3583404;40;20029;-84
2021/04/23 12:46:48;;;;;;;10.43;4.93;;;17.80;43.80;;;;;;3687068;23;20037;-89
2021/04/23 12:49:25;;;;;;;9.60;4.47;;;18.10;43.00;;;;;;1210125;22;20172;-88
2021/04/23 12:54:46;;;;;;;10.13;4.50;;;17.70;43.40;;;;;;3839951;23;20058;-89
2021/04/23 13:00:19;;;;;;;12.20;4.13;;;19.90;39.70;;;;;;3603868;39;20039;-89
2021/04/23 13:02:54;;;;;;;18.38;5.25;;;19.60;40.10;;;;;;3594107;40;20172;-86
2021/04/23 13:05:24;;;;;;;10.98;4.72;;;21.20;39.60;;;;;;3591990;40;20363;-85
2021/04/23 13:08:01;;;;;;;8.65;3.97;;;22.50;36.60;;;;;;3579312;40;20116;-86
2021/04/23 13:10:45;;;;;;;12.45;4.35;;;24.20;35.20;;;;;;3581769;40;20407;-84
2021/04/23 13:13:19;;;;;;;12.07;4.70;;;25.60;31.60;;;;;;3552060;40;20394;-84
2021/04/23 13:15:49;;;;;;;9.52;4.07;;;25.40;32.50;;;;;;3550081;40;20062;-85
2021/04/23 13:18:23;;;;;;;14.15;5.07;;;25.30;31.40;;;;;;3556375;40;20467;-86
2021/04/23 13:20:54;;;;;;;10.02;4.28;;;23.50;32.80;;;;;;3559531;40;20089;-87
2021/04/23 13:23:36;;;;;;;17.25;4.88;;;23.30;34.00;;;;;;3542936;40;20074;-85
2021/04/23 13:26:10;;;;;;;7.25;3.60;;;23.80;33.00;;;;;;3562044;40;20089;-85
2021/04/23 13:28:47;;;;;;;10.85;4.65;;;24.60;32.00;;;;;;3553672;40;20124;-85
2021/04/23 13:31:19;;;;;;;10.50;4.55;;;25.10;30.90;;;;;;3549984;40;20389;-84
2021/04/23 13:33:49;;;;;;;8.85;4.57;;;24.50;30.60;;;;;;3556461;40;20078;-86
2021/04/23 13:36:20;;;;;;;8.23;3.92;;;23.30;32.00;;;;;;3552769;40;20433;-84
2021/04/23 13:38:52;;;;;;;9.68;4.25;;;23.50;32.30;;;;;;3553732;40;20326;-86
2021/04/23 13:41:40;;;;;;;11.15;3.78;;;23.90;32.10;;;;;;3561077;40;20062;-85
2021/04/23 13:44:11;;;;;;;15.07;4.38;;;24.60;31.10;;;;;;3567264;40;20076;-85
2021/04/23 13:46:47;;;;;;;8.38;3.58;;;25.10;31.10;;;;;;3589690;40;20387;-83
2021/04/23 13:49:26;;;;;;;10.63;3.90;;;27.10;30.00;;;;;;3581116;40;20084;-86
2021/04/23 13:52:01;;;;;;;12.35;4.10;;;27.30;29.20;;;;;;3586723;40;20060;-83
2021/04/23 13:54:30;;;;;;;9.05;4.38;;;25.80;29.70;;;;;;3583283;40;20055;-88
2021/04/23 13:57:12;;;;;;;13.82;4.63;;;24.80;31.00;;;;;;3594578;40;20291;-87
2021/04/23 14:07:21;;;;;;;14.65;4.30;;;21.80;34.00;;;;;;3577771;40;20401;-86
2021/04/23 14:09:52;;;;;;;10.05;4.35;;;20.70;34.70;;;;;;3680259;22;20049;31
2021/04/23 14:18:06;;;;;;;11.48;4.22;;;20.60;36.30;;;;;;3557440;40;19962;-88
2021/04/23 14:21:11;;;;;;;11.73;4.18;;;22.20;34.90;;;;;;3526052;40;20024;-85
2021/04/23 14:23:41;;;;;;;10.00;3.75;;;23.80;31.80;;;;;;3540396;40;20052;-87
2021/04/23 14:28:56;;;;;;;11.15;4.20;;;23.30;31.50;;;;;;1588683;23;20099;31
2021/04/23 14:31:36;;;;;;;7.72;4.03;;;22.90;32.60;;;;;;3541339;40;20051;-88
2021/04/23 14:34:05;;;;;;;12.40;4.30;;;24.00;31.10;;;;;;3537617;40;20039;-87
2021/04/23 14:36:34;;;;;;;9.27;3.90;;;24.60;30.40;;;;;;3541589;40;20038;-87
2021/04/23 14:39:03;;;;;;;10.30;3.65;;;23.70;31.20;;;;;;3542175;40;20070;-83
2021/04/23 14:41:38;;;;;;;13.20;4.40;;;23.50;31.60;;;;;;3540062;40;20070;-87
2021/04/23 14:44:10;;;;;;;10.43;4.10;;;23.50;31.30;;;;;;3541238;40;20063;-85
2021/04/23 14:46:46;;;;;;;;;;;23.60;31.70;;;;;;3537097;40;20035;-87
2021/04/23 14:52:00;;;;;;;13.13;4.18;;;23.20;31.40;;;;;;3568737;40;20054;-88
2021/04/23 14:54:33;;;;;;;9.70;3.95;;;23.10;31.40;;;;;;3533940;40;20063;-86
2021/04/23 14:57:02;;;;;;;12.05;3.88;;;23.60;31.10;;;;;;3553977;40;20154;-84
2021/04/23 14:59:30;;;;;;;9.77;3.90;;;22.90;31.50;;;;;;3540202;40;20074;-83
2021/04/23 15:02:04;;;;;;;11.25;4.22;;;22.00;32.50;;;;;;3542029;40;20085;-86
2021/04/23 15:04:33;;;;;;;10.00;3.80;;;21.80;33.10;;;;;;3551223;40;20094;-82
2021/04/23 15:07:01;;;;;;;11.70;3.90;;;22.70;32.20;;;;;;3547115;40;20158;-83
2021/04/23 15:09:29;;;;;;;10.45;3.67;;;23.70;31.40;;;;;;3547698;40;20090;-83
2021/04/23 15:12:00;;;;;;;8.48;3.70;;;24.80;30.60;;;;;;3548776;40;20094;-84
2021/04/23 15:14:29;;;;;;;8.05;3.15;;;25.90;29.50;;;;;;3555399;40;20301;-85
2021/04/23 15:16:58;;;;;;;10.32;3.58;;;26.90;28.90;;;;;;3535218;40;20061;-82
2021/04/23 15:19:28;;;;;;;8.75;3.67;;;27.30;28.20;;;;;;3541458;40;20078;-83
2021/04/23 15:21:58;;;;;;;17.52;3.65;;;27.50;28.00;;;;;;3545546;40;20094;-85
2021/04/23 15:24:26;;;;;;;12.15;3.70;;;27.60;28.00;;;;;;3544676;40;20094;-84
2021/04/23 15:27:01;;;;;;;9.07;3.70;;;28.00;27.80;;;;;;3547395;40;20071;-85
2021/04/23 15:29:36;;;;;;;7.95;2.97;;;27.90;27.90;;;;;;3531098;40;20086;-83
2021/04/23 15:32:07;;;;;;;12.80;3.80;;;27.60;28.30;;;;;;3548700;40;20402;-83
2021/04/23 15:34:36;;;;;;;8.82;3.58;;;27.50;28.20;;;;;;3540425;40;20086;-83
2021/04/23 15:37:04;;;;;;;17.45;3.95;;;26.50;28.40;;;;;;3549634;40;20314;-85
2021/04/23 15:39:33;;;;;;;12.88;4.32;;;25.00;29.00;;;;;;3533461;40;20078;-83
2021/04/23 15:42:01;;;;;;;11.30;3.97;;;24.40;29.70;;;;;;3529484;40;20095;-87
2021/04/23 15:44:32;;;;;;;8.77;4.05;;;25.00;29.70;;;;;;3522061;40;20078;-81
2021/04/23 15:47:06;;;;;;;12.13;3.35;;;25.80;29.20;;;;;;3542329;40;20338;-84
2021/04/23 15:49:35;;;;;;;10.60;3.95;;;26.30;29.00;;;;;;3528357;40;20101;-83
2021/04/23 15:52:14;;;;;;;14.20;4.18;;;26.60;28.60;;;;;;3501607;41;20065;-85
2021/04/23 15:54:51;;;;;;;10.27;4.18;;;26.80;28.30;;;;;;3511195;40;20414;-83
2021/04/23 15:57:22;;;;;;;10.45;3.60;;;26.30;28.40;;;;;;3497624;41;20073;-82
2021/04/23 15:59:53;;;;;;;10.80;4.10;;;26.00;28.50;;;;;;3490884;41;20061;-82
2021/04/23 16:02:24;;;;;;;11.18;3.80;;;26.10;28.70;;;;;;3484678;41;20096;-82
2021/04/23 16:04:56;;;;;;;6.85;3.33;;;26.10;28.30;;;;;;3482230;41;20060;-82
2021/04/23 16:07:26;;;;;;;10.45;3.30;;;26.00;28.50;;;;;;3484392;41;20464;-83
2021/04/23 16:09:56;;;;;;;10.73;3.53;;;25.90;28.60;;;;;;3493748;41;20399;-83
2021/04/23 16:12:29;;;;;;;12.23;4.63;;;25.90;28.50;;;;;;3484992;41;20123;-83
2021/04/23 16:14:59;;;;;;;10.52;3.75;;;25.40;28.70;;;;;;3487436;41;20040;-84
2021/04/23 16:17:33;;;;;;;11.30;3.40;;;24.60;29.40;;;;;;3494387;41;20072;-81
2021/04/23 16:20:10;;;;;;;10.38;3.47;;;24.60;29.40;;;;;;3497121;41;20195;-82
2021/04/23 16:22:41;;;;;;;17.58;3.58;;;24.00;29.50;;;;;;3494797;41;20119;-82
2021/04/23 16:25:11;;;;;;;14.77;4.65;;;23.10;30.90;;;;;;3503630;41;20106;-85
2021/04/23 16:27:40;;;;;;;12.43;4.15;;;23.10;31.10;;;;;;3510293;40;20091;-83
2021/04/23 16:30:10;;;;;;;10.30;4.40;;;23.50;31.10;;;;;;3534459;40;20118;-84
2021/04/23 16:32:41;;;;;;;13.50;4.50;;;23.80;30.70;;;;;;3540590;40;20086;-83
2021/04/23 16:35:09;;;;;;;14.20;4.80;;;24.10;30.40;;;;;;3548226;40;20327;-86
2021/04/23 16:37:37;;;;;;;10.38;3.78;;;24.40;30.70;;;;;;3555131;40;20070;-85
2021/04/23 16:40:12;;;;;;;12.80;4.35;;;24.40;30.20;;;;;;3553430;40;20085;-83
2021/04/23 16:42:50;;;;;;;11.93;4.05;;;24.20;30.40;;;;;;3539766;40;20081;-81
2021/04/23 16:45:21;;;;;;;12.73;3.75;;;24.10;30.40;;;;;;3542611;40;20083;-83
2021/04/23 16:47:49;;;;;;;14.05;4.82;;;24.10;30.10;;;;;;3558763;40;20098;-83
2021/04/23 16:50:22;;;;;;;8.75;3.08;;;24.20;29.90;;;;;;3551304;40;20073;-84
2021/04/23 16:52:53;;;;;;;11.98;3.45;;;24.10;29.50;;;;;;3551023;40;20089;-82
2021/04/23 16:55:21;;;;;;;9.10;3.75;;;23.90;29.90;;;;;;3547300;40;20129;-84
2021/04/23 16:57:57;;;;;;;10.75;3.50;;;23.60;30.40;;;;;;3554173;40;20097;-84
2021/04/23 17:00:26;;;;;;;10.20;3.88;;;23.50;30.60;;;;;;3557806;40;20094;-84
2021/04/23 17:03:00;;;;;;;13.18;4.13;;;23.30;30.80;;;;;;3563275;40;20093;-84
2021/04/23 17:05:29;;;;;;;10.68;4.10;;;23.20;30.50;;;;;;3571461;40;20097;-86
2021/04/23 17:07:58;;;;;;;11.38;4.05;;;22.80;30.90;;;;;;3570158;40;20329;-86
2021/04/23 17:10:26;;;;;;;12.32;4.05;;;22.40;31.40;;;;;;3571733;40;20126;-84
2021/04/23 17:12:54;;;;;;;10.30;3.77;;;22.10;31.90;;;;;;3570853;40;20370;-85
2021/04/23 17:15:27;;;;;;;10.55;3.50;;;21.80;32.40;;;;;;3562597;40;20065;-83
2021/04/23 17:18:06;;;;;;;9.38;3.20;;;21.80;32.60;;;;;;3563212;40;20100;-79
2021/04/23 17:20:35;;;;;;;12.55;4.13;;;21.80;32.60;;;;;;3554201;40;20085;-82
2021/04/23 17:23:07;;;;;;;15.13;4.70;;;21.90;32.50;;;;;;3553560;40;20069;-85
2021/04/23 17:25:36;;;;;;;12.05;4.00;;;21.70;33.10;;;;;;3562034;40;20372;-85
2021/04/23 17:28:05;;;;;;;9.30;3.72;;;21.20;33.40;;;;;;3570636;40;20097;-84
2021/04/23 17:30:52;;;;;;;15.73;5.43;;;21.00;33.80;;;;;;3562951;40;20460;-84
2021/04/23 17:33:29;;;;;;;10.07;3.85;;;20.60;34.50;;;;;;3553193;40;20053;-86
2021/04/23 17:35:59;;;;;;;10.10;3.58;;;20.30;35.20;;;;;;3553227;40;20105;-85
2021/04/23 17:38:30;;;;;;;8.15;3.65;;;20.00;35.50;;;;;;3553609;40;20093;-86
2021/04/23 17:40:58;;;;;;;10.20;3.53;;;19.70;35.90;;;;;;3553249;40;20460;-86
2021/04/23 17:43:28;;;;;;;10.77;3.72;;;19.50;36.50;;;;;;3561117;40;20115;-86
2021/04/23 17:46:08;;;;;;;8.77;3.85;;;19.30;36.80;;;;;;3570761;40;20155;-82
2021/04/23 17:48:44;;;;;;;11.70;5.10;;;18.80;37.30;;;;;;3571326;40;20077;-89
2021/04/23 17:51:23;;;;;;;17.25;3.67;;;17.90;38.20;;;;;;3564882;40;20114;-86
2021/04/23 17:54:00;;;;;;;14.90;4.30;;;17.10;39.60;;;;;;3554636;40;20174;-87
2021/04/23 17:56:32;;;;;;;14.13;3.70;;;16.20;41.60;;;;;;3533481;40;20090;-88
2021/04/23 17:59:17;;;;;;;10.02;3.42;;;15.50;42.60;;;;;;3537002;40;20098;-87
2021/04/23 18:01:47;;;;;;;7.95;3.13;;;14.90;43.80;;;;;;3549513;40;20349;-86
2021/04/23 18:04:15;;;;;;;9.68;3.47;;;14.50;44.80;;;;;;3542582;40;20158;-87
2021/04/23 18:06:46;;;;;;;13.45;4.57;;;14.20;45.70;;;;;;3543955;40;20067;-87
2021/04/23 18:09:18;;;;;;;15.25;3.78;;;13.90;46.30;;;;;;3539189;40;20082;-86
2021/04/23 18:15:02;;;;;;;13.30;3.70;;;13.50;47.40;;;;;;3534212;40;20115;-88
2021/04/23 18:20:16;;;;;;;18.35;3.83;;;13.00;48.80;;;;;;3549864;40;20090;-84
2021/04/23 18:22:59;;;;;;;16.65;3.47;;;12.90;49.50;;;;;;3544331;40;20218;-84
2021/04/23 18:25:52;;;;;;;11.70;3.65;;;12.70;49.80;;;;;;3531346;40;20067;-84
2021/04/23 18:28:34;;;;;;;14.75;3.65;;;12.60;50.40;;;;;;3530063;40;20185;-85
2021/04/23 18:31:25;;;;;;;11.60;2.97;;;12.50;50.90;;;;;;3536817;40;20062;-84
2021/04/23 18:33:55;;;;;;;12.50;3.45;;;12.30;51.40;;;;;;3546330;40;20062;-85
2021/04/23 18:36:26;;;;;;;10.13;3.28;;;12.30;51.60;;;;;;3541280;40;20059;-86
2021/04/23 18:38:58;;;;;;;11.32;3.38;;;12.30;51.80;;;;;;3559129;40;20129;-85
2021/04/23 18:41:30;;;;;;;11.75;3.35;;;12.10;52.20;;;;;;3549526;40;20086;-85
2021/04/23 18:44:06;;;;;;;14.13;3.35;;;11.90;52.60;;;;;;3536277;40;20063;-87
2021/04/23 18:47:17;;;;;;;21.20;4.55;;;11.90;53.10;;;;;;3535846;40;20080;-85
2021/04/23 18:50:25;;;;;;;10.88;3.17;;;11.80;53.40;;;;;;3535609;40;20023;-86
2021/04/23 19:02:37;;;;;;;10.90;3.25;;;11.50;54.30;;;;;;3580981;40;20037;-88
2021/04/23 19:05:27;;;;;;;10.32;3.20;;;11.50;54.80;;;;;;3572120;40;20038;-87
2021/04/23 19:08:00;;;;;;;19.05;4.47;;;11.20;55.20;;;;;;3580129;40;20033;-86
2021/04/23 19:10:32;;;;;;;13.48;4.05;;;11.10;55.90;;;;;;3570552;40;20324;-85
2021/04/23 19:13:02;;;;;;;15.60;4.95;;;11.10;56.10;;;;;;3564366;40;20053;-86
2021/04/23 19:15:39;;;;;;;15.73;5.45;;;11.00;56.40;;;;;;3569399;40;20064;-87
2021/04/23 19:18:07;;;;;;;13.02;4.22;;;10.90;56.70;;;;;;3553862;40;20041;-86
2021/04/23 19:20:55;;;;;;;14.85;3.60;;;10.90;57.00;;;;;;3564679;40;20349;-88
2021/04/23 19:23:41;;;;;;;;;;;;;;;;;;;;;
2021/04/23 19:26:15;;;;;;;13.48;4.38;;;11.00;56.80;;;;;;3572989;40;20041;-86
2021/04/23 19:29:16;;;;;;;17.10;4.72;;;11.10;56.80;;;;;;3550144;40;20039;-85
2021/04/23 19:32:08;;;;;;;13.73;3.78;;;11.00;56.80;;;;;;3559445;40;20388;-88
2021/04/23 19:34:44;;;;;;;11.82;4.50;;;11.00;57.10;;;;;;3544941;40;20052;-85
2021/04/23 19:37:19;;;;;;;14.30;4.85;;;10.90;57.40;;;;;;3558202;40;20032;-85
2021/04/23 19:39:48;;;;;;;16.98;4.00;;;10.80;57.80;;;;;;3546525;40;20049;-85
2021/04/23 19:42:24;;;;;;;10.38;4.00;;;10.80;57.70;;;;;;3565627;40;20514;-85
2021/04/23 19:44:59;;;;;;;12.38;3.85;;;10.70;58.20;;;;;;3566841;40;20036;-86
2021/04/23 19:47:51;;;;;;;13.15;4.20;;;10.60;58.60;;;;;;3551500;40;20369;-85
2021/04/23 20:09:01;;;;;;;15.32;6.10;;;11.00;59.00;;;;;;3513370;40;20040;-84
2021/04/23 20:11:42;;;;;;;22.75;5.78;;;10.80;59.60;;;;;;3507308;41;20025;-82
2021/04/23 20:14:45;;;;;;;14.38;5.55;;;10.70;60.00;;;;;;3516691;41;20032;-84
2021/04/23 20:17:39;;;;;;;16.33;5.78;;;10.70;60.40;;;;;;3509416;40;20067;-82
2021/04/23 20:20:47;;;;;;;16.13;5.38;;;10.70;60.70;;;;;;3506111;41;20047;-85
2021/04/23 20:27:13;;;;;;;15.23;6.05;;;10.70;60.50;;;;;;3514952;41;20037;-82
2021/04/23 20:30:27;;;;;;;15.43;6.30;;;10.70;60.70;;;;;;3498391;41;20032;-83
2021/04/23 20:36:46;;;;;;;15.50;5.77;;;10.50;61.60;;;;;;3526400;40;20040;-83
2021/04/23 20:39:21;;;;;;;17.00;5.95;;;10.40;62.10;;;;;;3524132;40;20028;-84
2021/04/23 20:56:54;;;;;;;17.52;5.97;;;10.30;63.10;;;;;;3940397;23;20058;-86
2021/04/23 22:29:22;;;;;;;16.63;6.82;;;9.20;73.00;;;;;;4850466;24;20042;-84
2021/04/23 22:32:06;;;;;;;20.25;6.05;;;9.20;73.40;;;;;;3470119;41;20041;-84
2021/04/23 22:35:38;;;;;;;21.42;6.60;;;9.20;73.80;;;;;;3492367;41;20029;-85
2021/04/23 22:38:36;;;;;;;15.07;6.00;;;9.10;74.40;;;;;;3484062;41;20030;-86